Time;durP1;ratioP1;P1;durP2;ratioP2;P2;SDS_P1;SDS_P2;PMS_P1;PMS_P2;Temp;Humidity;BMP_temperature;BMP_pressure;BME280_temperature;BME280_humidity;BME280_pressure;Samples;Min_cycle;Max_cycle;Signal;HPM_P1;HPM_P2
2023/09/03 00:04:09;;;;;;;1.92;1.50;;;;;;;21.00;82.89;100837.81;10332744;28;20053;-57
2023/09/03 00:09:10;;;;;;;2.13;1.10;;;;;;;21.05;83.00;100857.09;10343662;28;20115;-57
2023/09/03 00:14:11;;;;;;;2.00;1.45;;;;;;;21.06;82.85;100863.31;10331921;28;20550;-57
2023/09/03 00:19:13;;;;;;;1.80;1.25;;;;;;;20.92;83.11;100862.22;10339477;28;20565;-57
2023/09/03 00:24:15;;;;;;;1.80;1.10;;;;;;;20.95;82.78;100869.97;10341027;28;20038;-57
2023/09/03 00:29:16;;;;;;;2.17;1.10;;;;;;;20.89;83.19;100870.69;10348894;28;20097;-57
2023/09/03 00:34:18;;;;;;;3.10;1.55;;;;;;;20.92;83.22;100859.53;10346501;28;20056;-57
2023/09/03 00:39:19;;;;;;;2.30;1.20;;;;;;;20.92;83.59;100862.22;10335376;28;20514;-56
2023/09/03 00:44:21;;;;;;;1.88;0.95;;;;;;;20.77;83.05;100826.94;10331802;28;20139;-57
2023/09/03 00:49:24;;;;;;;2.67;1.20;;;;;;;20.80;82.84;100837.41;10329216;28;20061;-56
2023/09/03 00:54:26;;;;;;;2.63;1.45;;;;;;;20.78;82.78;100828.66;10349409;28;20053;-57
2023/09/03 00:59:29;;;;;;;1.65;1.05;;;;;;;20.73;82.80;100834.59;10320171;28;21111;-56
2023/09/03 01:04:31;;;;;;;1.48;1.10;;;;;;;20.78;82.52;100861.13;10321519;28;20049;-56
2023/09/03 01:09:33;;;;;;;1.95;1.40;;;;;;;20.73;82.41;100848.13;10322861;28;20078;-58
2023/09/03 01:14:50;;;;;;;2.50;1.17;;;;;;;20.69;82.52;100857.59;10333078;28;20759;-57
2023/09/03 01:20:20;;;;;;;1.88;1.30;;;;;;;20.66;82.95;100852.53;10346845;28;20821;-57
2023/09/03 01:25:43;;;;;;;2.33;1.13;;;;;;;20.61;83.03;100850.31;10298901;28;20060;-56
2023/09/03 01:30:45;;;;;;;1.70;1.13;;;;;;;20.60;83.07;100858.63;10314817;28;20061;-57
2023/09/03 01:35:49;;;;;;;2.70;1.23;;;;;;;20.58;83.06;100868.75;10331104;28;20053;-57
2023/09/03 01:40:51;;;;;;;1.30;1.02;;;;;;;20.56;83.07;100865.38;10318874;28;20041;-56
2023/09/03 01:46:12;;;;;;;1.92;1.20;;;;;;;20.51;83.04;100876.72;10342793;28;20537;-56
2023/09/03 01:51:29;;;;;;;1.55;1.23;;;;;;;20.47;83.69;100878.91;10331383;28;20054;-57
2023/09/03 01:56:36;;;;;;;3.35;2.00;;;;;;;20.43;83.44;100893.81;10336115;28;20108;-56
2023/09/03 02:01:38;;;;;;;2.67;1.02;;;;;;;20.34;84.04;100886.72;10343292;28;20053;-57
2023/09/03 02:06:44;;;;;;;1.58;1.30;;;;;;;20.35;83.90;100899.22;10329675;28;20588;-57
2023/09/03 02:11:47;;;;;;;1.60;1.50;;;;;;;20.35;83.52;100898.38;10327162;28;20565;-57
2023/09/03 02:16:50;;;;;;;1.63;1.35;;;;;;;20.33;84.31;100901.28;10331430;28;20061;-57
2023/09/03 02:21:52;;;;;;;1.52;1.13;;;;;;;20.32;84.01;100913.09;10344581;28;20053;-57
2023/09/03 02:26:53;;;;;;;2.88;1.52;;;;;;;20.31;83.87;100919.50;10327861;28;20552;-57
2023/09/03 02:31:55;;;;;;;1.60;1.33;;;;;;;20.26;83.93;100921.88;10347231;28;20057;-56
2023/09/03 02:36:56;;;;;;;3.25;1.55;;;;;;;20.23;84.15;100917.66;10344757;28;20197;-57
2023/09/03 02:41:58;;;;;;;2.15;1.95;;;;;;;20.22;84.87;100915.13;10335837;28;20844;-57
2023/09/03 02:46:59;;;;;;;2.35;2.15;;;;;;;20.20;84.99;100917.16;10332963;28;20042;-56
2023/09/03 02:52:02;;;;;;;2.33;2.00;;;;;;;20.07;85.17;100894.22;10343896;28;20195;-57
2023/09/03 02:57:03;;;;;;;2.63;2.28;;;;;;;20.07;84.77;100907.72;10339847;28;20135;-57
2023/09/03 03:02:05;;;;;;;2.90;2.70;;;;;;;20.03;85.20;100916.34;10312664;28;20302;-56
2023/09/03 03:07:06;;;;;;;2.90;2.65;;;;;;;20.03;84.98;100913.63;10339498;28;20053;-57
2023/09/03 03:12:08;;;;;;;4.93;3.17;;;;;;;20.04;84.97;100929.69;10341696;28;20777;-56
2023/09/03 03:17:09;;;;;;;4.05;3.40;;;;;;;19.99;85.43;100929.31;10344152;28;20042;-56
2023/09/03 03:22:12;;;;;;;5.43;4.13;;;;;;;20.05;85.40;100935.91;10329606;28;20140;-57
2023/09/03 03:27:14;;;;;;;4.45;3.92;;;;;;;20.04;85.75;100929.69;10327256;28;20050;-57
2023/09/03 03:32:18;;;;;;;4.90;4.10;;;;;;;20.04;86.23;100924.28;10338895;28;20058;-58
2023/09/03 03:37:20;;;;;;;5.40;4.90;;;;;;;20.04;85.88;100937.78;10329610;28;20610;-57
2023/09/03 03:42:22;;;;;;;4.90;4.50;;;;;;;20.04;85.65;100937.78;10344124;28;20509;-56
2023/09/03 03:47:23;;;;;;;6.25;4.97;;;;;;;20.02;85.87;100942.50;10343173;28;20065;-56
2023/09/03 03:52:25;;;;;;;6.15;4.90;;;;;;;19.98;86.32;100946.53;10331626;28;20045;-57
2023/09/03 03:57:27;;;;;;;5.70;5.20;;;;;;;19.99;86.55;100963.63;10329107;28;20526;-57
2023/09/03 04:02:28;;;;;;;6.95;5.25;;;;;;;19.98;87.05;100965.47;10337436;28;20050;-57
2023/09/03 04:07:30;;;;;;;5.85;5.30;;;;;;;19.78;86.92;100927.97;10352801;28;20065;-56
2023/09/03 04:12:31;;;;;;;6.57;5.90;;;;;;;19.85;86.42;100935.41;10346305;28;20068;-57
2023/09/03 04:17:33;;;;;;;6.70;5.97;;;;;;;19.92;87.24;100941.81;10350524;28;20099;-57
2023/09/03 04:22:37;;;;;;;6.38;4.80;;;;;;;19.88;87.35;100943.19;10350365;28;20041;-57
2023/09/03 04:27:38;;;;;;;;;;;;;;;19.89;87.97;100947.56;10338693;28;20067;-58
2023/09/03 04:32:39;;;;;;;6.20;5.60;;;;;;;19.88;87.42;100940.47;10334414;28;19921;-59
2023/09/03 04:37:41;;;;;;;6.90;6.20;;;;;;;19.77;87.57;100941.59;10331316;28;20060;-57
2023/09/03 04:42:45;;;;;;;7.40;6.03;;;;;;;19.86;87.85;100945.19;10350228;28;20181;-59
2023/09/03 04:47:47;;;;;;;6.45;5.85;;;;;;;19.83;87.49;100945.53;10323213;28;20667;-57
2023/09/03 04:52:49;;;;;;;6.32;5.72;;;;;;;19.82;87.91;100963.59;10335615;28;20050;-57
2023/09/03 04:57:50;;;;;;;7.88;5.93;;;;;;;19.75;87.67;100962.53;10347719;28;20089;-57
2023/09/03 05:02:52;;;;;;;6.07;5.47;;;;;;;19.78;88.16;100979.28;10349641;28;20439;-57
2023/09/03 05:07:53;;;;;;;5.75;5.10;;;;;;;19.77;88.15;100983.00;10332445;28;20086;-56
2023/09/03 05:12:55;;;;;;;6.68;5.45;;;;;;;19.66;88.59;100980.59;10346712;28;20077;-57
2023/09/03 05:17:57;;;;;;;6.15;5.55;;;;;;;19.62;89.01;100998.13;10336592;28;20519;-59
2023/09/03 05:22:58;;;;;;;5.63;4.85;;;;;;;19.58;88.63;101000.31;10347554;28;20054;-57
2023/09/03 05:28:00;;;;;;;5.82;4.65;;;;;;;19.59;88.76;101020.06;10330680;28;20715;-58
2023/09/03 05:33:02;;;;;;;5.47;4.97;;;;;;;19.57;88.74;101024.78;10319703;28;20603;-57
2023/09/03 05:38:07;;;;;;;4.68;4.13;;;;;;;19.56;88.79;101039.28;10345032;28;20045;-58
2023/09/03 05:43:09;;;;;;;6.53;4.78;;;;;;;19.52;88.82;101033.38;10345178;28;20053;-57
2023/09/03 05:48:11;;;;;;;6.03;4.90;;;;;;;19.52;88.68;101029.84;10336801;28;20049;-59
2023/09/03 05:53:13;;;;;;;7.87;6.00;;;;;;;19.61;89.49;101050.47;10336534;28;20100;-57
2023/09/03 05:58:16;;;;;;;7.90;7.13;;;;;;;19.66;89.64;101067.00;10348434;28;20050;-58
2023/09/03 06:03:18;;;;;;;7.55;6.85;;;;;;;19.75;89.82;101065.19;10349494;28;20052;-58
2023/09/03 06:08:19;;;;;;;7.55;6.85;;;;;;;19.80;89.49;101068.25;10345133;28;20154;-56
2023/09/03 06:13:28;;;;;;;8.45;7.63;;;;;;;19.84;89.86;101058.81;10343318;28;20222;-57
2023/09/03 06:18:30;;;;;;;9.40;8.07;;;;;;;19.90;89.03;101068.13;10336694;28;20132;-53
2023/09/03 06:23:31;;;;;;;9.45;8.55;;;;;;;19.91;89.02;101075.22;10324173;28;20114;-54
2023/09/03 06:28:33;;;;;;;10.55;7.93;;;;;;;19.90;89.17;101079.78;10332186;28;20072;-54
2023/09/03 06:33:36;;;;;;;9.13;8.23;;;;;;;19.92;88.95;101093.13;10312698;28;20069;-54
2023/09/03 06:38:39;;;;;;;8.85;7.32;;;;;;;19.95;88.84;101100.88;10334599;28;20057;-54
2023/09/03 06:43:41;;;;;;;;;;;;;;;19.91;88.19;101123.88;10338313;28;20064;-53
2023/09/03 06:48:42;;;;;;;10.63;9.40;;;;;;;19.81;88.33;101110.47;10339587;28;19951;-53
2023/09/03 06:53:45;;;;;;;9.98;8.93;;;;;;;19.89;88.57;101125.88;10341136;28;20062;-53
2023/09/03 06:58:47;;;;;;;9.95;8.93;;;;;;;20.04;88.61;101145.00;10338514;28;20195;-52
2023/09/03 07:03:48;;;;;;;9.40;8.50;;;;;;;20.13;88.30;101154.81;10337779;28;20129;-53
2023/09/03 07:08:53;;;;;;;10.40;8.82;;;;;;;20.06;88.41;101151.09;10327991;28;20061;-53
2023/09/03 07:13:55;;;;;;;10.00;8.63;;;;;;;20.17;88.32;101166.16;10338289;28;20494;-53
2023/09/03 07:18:58;;;;;;;8.33;7.60;;;;;;;20.23;88.28;101170.91;10342442;28;20667;-52
2023/09/03 07:24:00;;;;;;;9.18;8.30;;;;;;;20.31;87.48;101182.59;10335500;28;20058;-54
2023/09/03 07:29:01;;;;;;;8.40;7.68;;;;;;;20.37;87.37;101183.81;10316192;28;20187;-53
2023/09/03 07:34:03;;;;;;;10.77;9.75;;;;;;;20.44;87.41;101184.81;10324504;28;20060;-52
2023/09/03 07:39:05;;;;;;;10.38;9.32;;;;;;;20.55;87.02;101185.50;10345835;28;20884;-56
2023/09/03 07:44:08;;;;;;;11.05;10.02;;;;;;;20.65;86.27;101197.03;10346874;28;20889;-52
2023/09/03 07:49:10;;;;;;;10.90;9.70;;;;;;;20.76;85.31;101204.88;10330723;28;20077;-52
2023/09/03 07:54:15;;;;;;;9.77;8.87;;;;;;;20.76;85.27;101218.38;10344298;28;20606;-53
2023/09/03 07:59:17;;;;;;;11.10;10.00;;;;;;;20.82;85.34;101208.72;10344213;28;20499;-53
2023/09/03 08:04:18;;;;;;;10.85;9.55;;;;;;;20.93;85.11;101200.31;10342888;28;20828;-52
2023/09/03 08:09:23;;;;;;;10.45;9.35;;;;;;;20.89;84.84;101198.94;10343855;28;20538;-53
2023/09/03 08:14:25;;;;;;;9.15;8.35;;;;;;;21.01;84.39;101223.81;10327846;28;20057;-53
2023/09/03 08:19:27;;;;;;;9.15;8.25;;;;;;;21.03;84.57;101238.00;10319145;28;20182;-57
2023/09/03 08:24:28;;;;;;;9.20;8.35;;;;;;;21.04;84.46;101255.94;10324354;28;20169;-52
2023/09/03 08:29:30;;;;;;;11.05;9.48;;;;;;;20.93;84.32;101245.47;10322523;28;20072;-51
2023/09/03 08:34:31;;;;;;;9.88;8.65;;;;;;;20.93;84.34;101246.31;10340289;28;20096;-51
2023/09/03 08:39:33;;;;;;;11.82;10.70;;;;;;;20.71;83.41;101236.97;10320787;28;20049;-53
2023/09/03 08:45:00;;;;;;;11.57;10.50;;;;;;;20.70;84.73;101246.09;10318727;28;20115;-52
2023/09/03 08:50:02;;;;;;;10.85;9.77;;;;;;;20.92;83.88;101255.44;10337858;28;20553;-53
2023/09/03 08:55:05;;;;;;;11.27;10.18;;;;;;;21.19;82.27;101251.53;10324268;28;20521;-53
2023/09/03 09:00:08;;;;;;;10.77;9.68;;;;;;;21.37;81.10;101223.47;10342944;28;20057;-51
2023/09/03 09:05:11;;;;;;;10.30;9.30;;;;;;;21.55;80.01;101231.41;10329766;28;20584;-52
2023/09/03 09:10:16;;;;;;;12.38;10.60;;;;;;;21.78;78.59;101233.41;10338708;28;20057;-52
2023/09/03 09:15:18;;;;;;;11.80;10.57;;;;;;;21.91;77.77;101241.00;10335045;28;20060;-52
2023/09/03 09:20:20;;;;;;;10.30;9.25;;;;;;;22.04;76.93;101252.13;10341103;28;20759;-52
2023/09/03 09:25:23;;;;;;;12.63;11.35;;;;;;;22.32;76.25;101255.25;10320595;28;21578;-51
2023/09/03 09:30:25;;;;;;;;;;;;;;;22.56;75.13;101248.00;10334587;28;20260;-51
2023/09/03 09:35:29;;;;;;;12.23;10.95;;;;;;;22.47;73.21;101246.38;10335120;28;19929;-52
2023/09/03 09:40:31;;;;;;;11.32;10.25;;;;;;;22.51;73.33;101253.16;10334640;28;20178;-51
2023/09/03 09:45:44;;;;;;;10.10;9.05;;;;;;;22.70;74.89;101251.81;10334083;28;20645;-59
2023/09/03 09:50:47;;;;;;;9.15;8.25;;;;;;;23.01;73.74;101243.63;10333172;28;20430;-57
2023/09/03 09:55:59;;;;;;;;;;;;;;;23.13;70.77;101230.50;10320162;28;20046;-57
2023/09/03 10:01:00;;;;;;;12.57;11.32;;;;;;;23.31;70.10;101243.78;10332116;28;19925;-58
2023/09/03 10:06:01;;;;;;;10.73;9.77;;;;;;;23.30;70.73;101237.50;10334139;28;20050;-55
2023/09/03 10:11:04;;;;;;;11.77;10.68;;;;;;;23.46;69.43;101244.66;10325622;28;20136;-54
2023/09/03 10:16:07;;;;;;;9.20;8.30;;;;;;;23.56;68.97;101247.09;10334330;28;20064;-55
2023/09/03 10:21:09;;;;;;;;;;;;;;;23.89;67.57;101243.22;10335264;28;20180;-52
2023/09/03 10:26:13;;;;;;;9.65;8.20;;;;;;;24.05;66.71;101236.75;10308049;28;19929;-56
2023/09/03 10:31:16;;;;;;;7.80;7.10;;;;;;;24.33;66.42;101243.16;10325753;28;20064;-56
2023/09/03 10:36:19;;;;;;;7.72;7.03;;;;;;;24.43;64.36;101220.28;10309123;28;22226;-56
2023/09/03 10:41:22;;;;;;;;;;;;;;;24.46;63.47;101250.66;10331756;28;20056;-55
2023/09/03 10:46:27;;;;;;;7.63;6.85;;;;;;;24.36;63.60;101252.84;10333493;28;19936;-56
2023/09/03 10:51:38;;;;;;;5.93;5.35;;;;;;;24.48;63.54;101242.31;10311738;28;20180;-51
2023/09/03 10:57:05;;;;;;;7.78;7.07;;;;;;;24.77;63.12;101246.00;10311994;28;21812;-51
2023/09/03 11:02:27;;;;;;;6.68;6.18;;;;;;;24.89;59.35;101249.88;10309351;28;20158;-51
2023/09/03 11:07:28;;;;;;;5.97;5.47;;;;;;;25.05;61.03;101240.63;10326803;28;20493;-51
2023/09/03 11:12:34;;;;;;;5.47;4.55;;;;;;;25.34;58.81;101234.22;10312607;28;20142;-51
2023/09/03 11:17:37;;;;;;;5.47;4.88;;;;;;;25.46;57.29;101245.44;10331209;28;21858;-50
2023/09/03 11:22:39;;;;;;;5.18;4.78;;;;;;;25.59;59.46;101236.47;10333008;28;20153;-49
2023/09/03 11:27:49;;;;;;;5.05;4.55;;;;;;;25.95;55.53;101238.16;10309334;28;20359;-51
2023/09/03 11:32:51;;;;;;;4.68;4.22;;;;;;;26.11;55.20;101229.69;10317302;28;20104;-50
2023/09/03 11:37:53;;;;;;;5.65;5.05;;;;;;;26.27;54.01;101227.63;10319244;28;20053;-50
2023/09/03 11:42:55;;;;;;;6.43;6.00;;;;;;;26.66;53.75;101225.25;10324991;28;20551;-51
2023/09/03 11:47:58;;;;;;;6.43;5.93;;;;;;;27.16;51.31;101226.59;10326415;28;20064;-50
2023/09/03 11:53:00;;;;;;;4.30;3.90;;;;;;;27.53;50.14;101226.19;10320138;28;20053;-51
2023/09/03 11:58:03;;;;;;;4.60;4.27;;;;;;;27.87;50.79;101225.06;10312497;28;20131;-52
2023/09/03 12:03:05;;;;;;;6.25;5.65;;;;;;;27.62;49.79;101229.53;10329914;28;20902;-50
2023/09/03 12:08:07;;;;;;;6.70;6.15;;;;;;;27.73;49.60;101231.63;10309886;28;20117;-51
2023/09/03 12:13:08;;;;;;;6.07;4.70;;;;;;;28.05;47.88;101207.16;10329192;28;20049;-51
2023/09/03 12:18:10;;;;;;;4.82;4.43;;;;;;;28.17;46.88;101216.34;10271519;28;20774;-50
2023/09/03 12:23:17;;;;;;;5.87;5.47;;;;;;;28.46;47.57;101213.25;10333477;28;20060;-50
2023/09/03 12:28:37;;;;;;;2.53;2.17;;;;;;;28.36;43.66;101198.16;10339485;28;20057;-51
2023/09/03 12:33:45;;;;;;;3.10;2.90;;;;;;;28.95;44.43;101210.88;10333161;28;20123;-50
2023/09/03 12:38:54;;;;;;;6.35;5.95;;;;;;;28.98;44.03;101204.94;10335481;28;20143;-52
2023/09/03 12:44:04;;;;;;;3.60;3.28;;;;;;;28.82;43.76;101198.09;10319696;28;20520;-52
2023/09/03 12:49:06;;;;;;;2.38;2.17;;;;;;;28.82;42.82;101200.84;10342144;28;20096;-51
2023/09/03 12:54:08;;;;;;;2.70;2.47;;;;;;;28.46;43.75;101192.19;10320455;28;20049;-49
2023/09/03 12:59:09;;;;;;;2.97;2.78;;;;;;;28.52;43.64;101195.94;10336958;28;20053;-51
2023/09/03 13:04:13;;;;;;;2.40;2.03;;;;;;;28.68;40.67;101197.38;10338025;28;20045;-50
2023/09/03 13:09:15;;;;;;;2.55;2.25;;;;;;;28.40;41.80;101171.16;10335024;28;20721;-50
2023/09/03 13:14:16;;;;;;;3.27;1.83;;;;;;;28.53;42.56;101201.22;10319327;28;20050;-50
2023/09/03 13:19:18;;;;;;;2.92;2.13;;;;;;;28.39;42.78;101188.69;10316114;28;20057;-51
2023/09/03 13:24:20;;;;;;;1.90;1.80;;;;;;;27.77;42.78;101177.31;10330828;28;20127;-52
2023/09/03 13:29:21;;;;;;;2.78;2.58;;;;;;;27.61;43.96;101195.88;10321453;28;20060;-57
2023/09/03 13:34:22;;;;;;;2.40;2.20;;;;;;;27.59;44.20;101181.56;10311327;28;20955;-51
2023/09/03 13:39:24;;;;;;;2.17;2.00;;;;;;;27.46;44.48;101193.41;10309352;28;21096;-51
2023/09/03 13:44:25;;;;;;;2.55;2.35;;;;;;;27.51;44.79;101201.78;10329179;28;20049;-51
2023/09/03 13:49:27;;;;;;;2.25;2.05;;;;;;;27.47;44.21;101200.56;10319815;28;20062;-50
2023/09/03 13:54:29;;;;;;;2.10;1.90;;;;;;;27.43;43.99;101204.75;10331944;28;20041;-51
2023/09/03 13:59:33;;;;;;;2.40;2.00;;;;;;;27.34;44.94;101206.03;10337353;28;20295;-51
2023/09/03 14:04:34;;;;;;;2.13;1.83;;;;;;;27.28;44.15;101190.44;10329891;28;20053;-51
2023/09/03 14:09:36;;;;;;;2.80;2.10;;;;;;;27.15;44.28;101194.84;10321296;28;20546;-51
2023/09/03 14:14:37;;;;;;;2.60;2.10;;;;;;;27.02;45.08;101203.03;10334475;28;20655;-52
2023/09/03 14:19:40;;;;;;;1.98;1.88;;;;;;;26.91;44.68;101200.94;10346108;28;20054;-50
2023/09/03 14:24:43;;;;;;;1.70;1.60;;;;;;;26.70;44.80;101194.63;10348188;28;20153;-50
2023/09/03 14:29:44;;;;;;;;;;;;;;;26.64;45.03;101201.72;10344964;28;20061;-51
2023/09/03 14:34:45;;;;;;;2.70;2.50;;;;;;;26.45;46.02;101187.00;10332811;28;20472;-58
2023/09/03 14:39:47;;;;;;;2.22;2.03;;;;;;;26.43;46.37;101194.53;10334609;28;20156;-50
2023/09/03 14:44:48;;;;;;;2.72;2.45;;;;;;;26.39;46.83;101203.34;10302812;28;20053;-50
2023/09/03 14:49:50;;;;;;;2.80;2.60;;;;;;;26.36;46.97;101198.28;10333272;28;20132;-52
2023/09/03 14:54:51;;;;;;;2.55;2.35;;;;;;;26.33;47.30;101205.00;10333821;28;20082;-51
2023/09/03 14:59:58;;;;;;;3.15;2.95;;;;;;;26.17;47.42;101195.28;10335136;28;20686;-51
2023/09/03 15:04:59;;;;;;;4.63;2.53;;;;;;;26.16;48.07;101203.69;10330035;28;20053;-51
2023/09/03 15:10:00;;;;;;;2.47;2.28;;;;;;;26.04;48.57;101204.25;10333849;28;20215;-51
2023/09/03 15:15:03;;;;;;;2.40;2.15;;;;;;;25.89;49.10;101200.81;10333563;28;20046;-52
2023/09/03 15:20:07;;;;;;;2.70;2.50;;;;;;;25.87;48.92;101200.16;10325769;28;20054;-52
2023/09/03 15:25:08;;;;;;;;;;;;;;;25.82;49.19;101199.91;10332915;28;20061;-53
2023/09/03 15:30:10;;;;;;;2.75;2.55;;;;;;;25.78;49.58;101194.03;10335658;28;20392;-52
2023/09/03 15:35:11;;;;;;;2.60;2.40;;;;;;;25.61;49.35;101185.31;10329815;28;20593;-51
2023/09/03 15:40:13;;;;;;;2.50;2.30;;;;;;;25.53;50.31;101190.94;10333196;28;20057;-51
2023/09/03 15:45:14;;;;;;;4.32;2.40;;;;;;;25.39;49.97;101188.13;10329535;28;20049;-51
2023/09/03 15:50:16;;;;;;;3.30;3.10;;;;;;;25.37;49.24;101186.63;10333699;28;20470;-53
2023/09/03 15:55:17;;;;;;;2.75;2.22;;;;;;;25.15;50.65;101185.84;10315082;28;20057;-54
2023/09/03 16:00:20;;;;;;;2.58;2.38;;;;;;;25.27;50.03;101195.13;10348376;28;20125;-51
2023/09/03 16:05:21;;;;;;;3.77;2.77;;;;;;;25.24;50.27;101190.09;10339747;28;20057;-51
2023/09/03 16:10:23;;;;;;;2.53;2.33;;;;;;;25.24;51.04;101206.44;10325664;28;20060;-50
2023/09/03 16:15:25;;;;;;;3.38;2.55;;;;;;;25.13;50.88;101209.69;10327344;28;20126;-50
2023/09/03 16:20:27;;;;;;;2.30;2.08;;;;;;;25.11;51.10;101195.44;10338919;28;20080;-51
2023/09/03 16:25:29;;;;;;;2.47;2.05;;;;;;;25.12;50.92;101199.84;10336637;28;20061;-51
2023/09/03 16:30:30;;;;;;;2.40;2.20;;;;;;;25.05;51.55;101197.06;10306546;28;20886;-51
2023/09/03 16:35:32;;;;;;;3.55;3.17;;;;;;;24.97;51.41;101194.47;10319856;28;20111;-55
2023/09/03 16:40:34;;;;;;;3.22;2.47;;;;;;;24.88;51.73;101201.94;10292176;28;20101;-51
2023/09/03 16:45:41;;;;;;;3.17;2.88;;;;;;;24.58;52.64;101187.59;10327062;28;20061;-53
2023/09/03 16:50:43;;;;;;;3.30;3.00;;;;;;;24.70;52.72;101203.22;10338900;28;20062;-52
2023/09/03 16:55:44;;;;;;;4.53;4.13;;;;;;;24.60;52.64;101204.59;10339140;28;20091;-52
2023/09/03 17:00:46;;;;;;;3.75;2.90;;;;;;;24.56;52.86;101204.09;10338571;28;20104;-51
2023/09/03 17:05:47;;;;;;;2.65;2.45;;;;;;;24.48;53.97;101205.03;10321271;28;20201;-54
2023/09/03 17:10:49;;;;;;;3.60;3.30;;;;;;;24.44;54.18;101200.19;10320508;28;20088;-51
2023/09/03 17:15:50;;;;;;;3.03;2.38;;;;;;;24.35;53.17;101204.91;10339761;28;20124;-52
2023/09/03 17:20:52;;;;;;;4.43;3.72;;;;;;;24.29;53.96;101203.81;10340384;28;20058;-52
2023/09/03 17:25:53;;;;;;;3.17;2.88;;;;;;;24.23;54.56;101196.41;10317375;28;20053;-51
2023/09/03 17:31:02;;;;;;;3.45;2.95;;;;;;;24.22;55.44;101200.16;10334325;28;20734;-51
2023/09/03 17:36:04;;;;;;;4.65;2.63;;;;;;;24.16;55.04;101200.91;10330228;28;20140;-50
2023/09/03 17:41:06;;;;;;;3.88;3.55;;;;;;;23.96;55.07;101190.63;10336992;28;20790;-52
2023/09/03 17:46:08;;;;;;;3.47;2.90;;;;;;;23.95;55.49;101197.09;10321251;28;20484;-51
2023/09/03 17:51:10;;;;;;;4.45;3.00;;;;;;;23.88;55.01;101201.59;10336527;28;20061;-51
2023/09/03 17:56:12;;;;;;;4.75;4.15;;;;;;;23.78;55.14;101206.44;10315164;28;20065;-51
2023/09/03 18:01:13;;;;;;;3.40;3.10;;;;;;;23.67;54.61;101206.91;10326380;28;20114;-51
2023/09/03 18:06:17;;;;;;;2.45;2.00;;;;;;;23.57;54.77;101213.47;10333091;28;20061;-51
2023/09/03 18:11:19;;;;;;;2.97;2.78;;;;;;;23.46;54.72;101206.63;10317815;28;20052;-51
2023/09/03 18:16:21;;;;;;;3.38;2.85;;;;;;;23.29;53.66;101197.78;10334981;28;20104;-53
2023/09/03 18:21:22;;;;;;;3.88;2.13;;;;;;;23.29;53.34;101214.06;10324628;28;20057;-52
2023/09/03 18:26:24;;;;;;;5.00;2.10;;;;;;;23.26;53.83;101219.88;10338191;28;20487;-52
2023/09/03 18:31:25;;;;;;;2.72;2.50;;;;;;;23.11;54.07;101213.56;10327288;28;20576;-52
2023/09/03 18:36:27;;;;;;;2.83;2.38;;;;;;;23.02;53.20;101239.91;10314871;28;20056;-52
2023/09/03 18:41:29;;;;;;;2.55;2.20;;;;;;;22.99;53.80;101225.88;10324646;28;20125;-51
2023/09/03 18:46:30;;;;;;;2.97;2.47;;;;;;;22.98;53.81;101226.88;10317413;28;20050;-51
2023/09/03 18:51:35;;;;;;;3.47;3.17;;;;;;;22.94;53.41;101223.69;10336884;28;20072;-52
2023/09/03 18:56:37;;;;;;;3.50;3.20;;;;;;;22.91;53.93;101221.34;10335023;28;20061;-50
2023/09/03 19:01:39;;;;;;;3.40;2.67;;;;;;;22.85;53.88;101225.63;10319465;28;20098;-52
2023/09/03 19:06:40;;;;;;;3.15;2.95;;;;;;;22.83;53.79;101230.38;10316470;28;20058;-52
2023/09/03 19:11:43;;;;;;;3.03;2.38;;;;;;;22.76;52.88;101240.28;10332964;28;20050;-51
2023/09/03 19:16:44;;;;;;;3.70;2.93;;;;;;;22.50;52.62;101208.88;10321706;28;20053;-51
2023/09/03 19:21:46;;;;;;;2.67;1.90;;;;;;;22.60;52.68;101233.91;10330944;28;20369;-52
2023/09/03 19:26:47;;;;;;;2.80;2.50;;;;;;;22.58;52.51;101248.69;10312309;28;20144;-51
2023/09/03 19:31:49;;;;;;;3.50;2.60;;;;;;;22.53;52.72;101253.81;10320827;28;20604;-52
2023/09/03 19:36:52;;;;;;;3.45;3.13;;;;;;;22.49;52.82;101234.34;10345106;28;20053;-53
2023/09/03 19:41:54;;;;;;;3.40;2.28;;;;;;;22.33;52.35;101234.41;10341665;28;20905;-52
2023/09/03 19:46:55;;;;;;;2.97;2.15;;;;;;;22.19;53.10;101217.00;10338663;28;20146;-55
2023/09/03 19:51:57;;;;;;;2.33;2.13;;;;;;;22.18;53.05;101216.13;10328074;28;20140;-51
2023/09/03 19:56:59;;;;;;;2.22;2.10;;;;;;;22.10;53.80;101218.91;10329864;28;20584;-50
2023/09/03 20:02:02;;;;;;;3.10;2.13;;;;;;;22.17;54.07;101211.75;10334758;28;20620;-55
2023/09/03 20:07:04;;;;;;;3.00;2.78;;;;;;;22.18;54.64;101210.72;10322790;28;20057;-53
2023/09/03 20:12:05;;;;;;;3.58;2.65;;;;;;;22.17;55.05;101219.91;10337504;28;20065;-55
2023/09/03 20:17:08;;;;;;;2.75;2.55;;;;;;;22.07;56.01;101224.69;10333367;28;20140;-55
2023/09/03 20:22:09;;;;;;;4.00;2.60;;;;;;;22.10;56.06;101245.16;10345268;28;20137;-56
2023/09/03 20:27:11;;;;;;;3.03;2.80;;;;;;;22.05;56.97;101240.25;10347165;28;20104;-54
2023/09/03 20:32:16;;;;;;;9.13;7.10;;;;;;;21.88;57.21;101221.34;10342278;28;20053;-55
2023/09/03 20:37:17;;;;;;;3.25;2.38;;;;;;;21.89;58.04;101238.47;10347886;28;20058;-56
2023/09/03 20:42:19;;;;;;;3.03;2.50;;;;;;;21.78;56.86;101236.94;10331782;28;20060;-54
2023/09/03 20:47:20;;;;;;;2.35;2.15;;;;;;;21.74;57.42;101235.63;10350290;28;20053;-56
2023/09/03 20:52:22;;;;;;;3.65;3.35;;;;;;;21.69;58.03;101238.00;10347841;28;20041;-55
2023/09/03 20:57:23;;;;;;;4.47;3.47;;;;;;;21.70;58.51;101239.69;10346514;28;20423;-55
2023/09/03 21:02:25;;;;;;;3.72;3.42;;;;;;;21.67;58.09;101245.47;10339042;28;20061;-56
2023/09/03 21:07:27;;;;;;;2.78;2.58;;;;;;;21.66;58.61;101249.19;10333849;28;20061;-55
2023/09/03 21:12:28;;;;;;;3.70;3.40;;;;;;;21.60;58.54;101244.44;10337635;28;20053;-56
2023/09/03 21:17:31;;;;;;;4.00;3.67;;;;;;;21.56;59.29;101237.66;10347640;28;20050;-56
2023/09/03 21:22:34;;;;;;;3.75;3.45;;;;;;;21.51;59.14;101236.34;10350169;28;20524;-54
2023/09/03 21:27:36;;;;;;;2.95;2.75;;;;;;;21.49;59.72;101238.34;10344546;28;20528;-54
2023/09/03 21:32:37;;;;;;;4.43;4.10;;;;;;;21.46;59.71;101241.38;10333340;28;20060;-56
2023/09/03 21:37:41;;;;;;;3.45;3.15;;;;;;;21.41;60.12;101241.06;10345881;28;20077;-55
2023/09/03 21:42:45;;;;;;;3.58;2.50;;;;;;;21.36;59.74;101241.56;10346731;28;20200;-55
2023/09/03 21:47:46;;;;;;;3.03;2.65;;;;;;;21.31;60.86;101235.81;10348986;28;20126;-55
2023/09/03 21:52:48;;;;;;;3.85;2.17;;;;;;;21.28;60.52;101255.09;10341828;28;20192;-56
2023/09/03 21:57:49;;;;;;;2.70;2.50;;;;;;;21.14;60.13;101245.81;10346050;28;20057;-57
2023/09/03 22:02:51;;;;;;;2.95;2.65;;;;;;;21.03;60.49;101235.31;10350480;28;20056;-55
2023/09/03 22:07:53;;;;;;;3.92;2.72;;;;;;;21.13;60.44;101260.34;10322552;28;20147;-56
2023/09/03 22:12:55;;;;;;;2.60;2.40;;;;;;;21.09;61.20;101264.44;10338694;28;20088;-56
2023/09/03 22:17:57;;;;;;;3.10;2.80;;;;;;;21.06;61.85;101263.91;10346073;28;20462;-56
2023/09/03 22:22:59;;;;;;;5.80;3.10;;;;;;;20.92;61.25;101258.13;10334361;28;20054;-55
2023/09/03 22:28:01;;;;;;;4.70;3.00;;;;;;;20.95;61.84;101276.75;10330378;28;20060;-56
2023/09/03 22:33:03;;;;;;;2.72;2.53;;;;;;;20.89;61.80;101268.47;10341985;28;20057;-56
2023/09/03 22:38:04;;;;;;;2.83;2.63;;;;;;;20.80;62.81;101254.91;10332467;28;20046;-56
2023/09/03 22:43:06;;;;;;;4.65;2.78;;;;;;;20.83;61.73;101265.38;10327364;28;20104;-57
2023/09/03 22:48:08;;;;;;;3.78;3.45;;;;;;;20.79;61.99;101266.75;10343850;28;20707;-55
2023/09/03 22:53:09;;;;;;;3.15;2.72;;;;;;;20.76;62.47;101285.16;10339493;28;20053;-56
2023/09/03 22:58:11;;;;;;;3.15;2.85;;;;;;;20.66;62.48;101275.34;10341967;28;20155;-55
2023/09/03 23:03:13;;;;;;;3.15;2.95;;;;;;;20.69;63.20;101285.00;10329431;28;20056;-56
2023/09/03 23:08:14;;;;;;;3.92;3.55;;;;;;;20.66;62.92;101279.91;10344844;28;20053;-56
2023/09/03 23:13:16;;;;;;;3.75;3.40;;;;;;;20.63;63.26;101280.22;10325770;28;20061;-56